Main page
METAR-TAF:

METAR-TAF

Airports :

Bahrain, Bahrain

Bahrain International Airport

latitude: 26-16N, longitude: 050-39E, elevation: 2 m

Current weather observation

The report was made 39 minutes ago, at 12:30 UTC
Wind 8 kt from the North
Temperature 21°C
Humidity 69%
Pressure 1012 hPa
Visibility 10 km or more
no clouds below 1500 m and no cumulonimbus

METAR: OBBI 211230Z 36008KT CAVOK 21/15 Q1012 NOSIG

Time: 16:09 (13:09 UTC)

Forecast

The report was made 26 hours and 9 minutes ago, at 11:00 UTC
Forecast valid from 20 at 12 UTC to 21 at 18 UTC
Wind 10 kt from the North/Northwest
Visibility: 7000 m

TAF: OBBI 201100Z 2012/2118 34010KT 7000 NSC

Weather observations and forecasts of more than 4000 airports (METAR and TAF reports).

The available stations are represented by yellow and red dots on the map.

Hover mouse over dot to see the name of the station.

Then click to see weather observations and forecasts.

To change the map : click on the green buttons with a black cross to zoom in, on the green button with a dash to zoom out, or on the green arrows for adjacent maps.


METAR-TAF: